Portada
METAR-TAF:

METAR-TAF

Aeroports :

Chiang Rai, Tailàndia

latitud: 19-57-08N, longitud: 099-52-59E, altitud: 390 m

Observació

L'informe es va fer fa 52 minuts, a les 23:00 UTC
Vent calma
Temperatura 18°C
Humitat 100%
Pressió 1017 hPa
Visibilitat: 0600 m
boira

METAR: VTCT 212300Z 00000KT 0600 R03/1400D FG VV002 18/18 Q1017 BECMG 1500 BR

Hora: 06:52 (23:52 UTC)

Pronòstic

L'informe es va fer fa 52 minuts, a les 23:00 UTC
Pronòstic vàlid del 22 a les 00 UTC al 23 a les 06 UTC
Vent 5 kt del Sud/Sud-Est
Visibilitat: 0800 m
Núvols disperses a una alçada de 500 ft
boira
Evolucionant progressivament
l' 22 a les 01 UTC al 22 a les 03 UTC
Visibilitat 10 km o més
Escasses núvols a una alçada de 3000 ft

TAF: VTCT 212300Z 2200/2306 16005KT 0800 FG SCT005 BECMG 2201/2203 9999 NSW FEW030

Observacions i pronòstics meteorològics de més de 4000 aeroports (METAR i TAF).

Les estacions disponibles són els punts grocs i vermells al mapa.

Posi el ratolí al punt desitjat per veure el nom de l'estació.

Feu clic per veure les observacions i els pronòstics meteorològics.

Per canviar el mapa: feu clic els botons verds amb una creu de color negre per apropar; al botó verd amb un guió per allunyar la imatge; o en les fletxes verdes per a mapes adjacents.


METAR-TAF: